Thassos I — SVA2081 — position and weather

sailwx.info

Track history (hours):
 
Tides and Currents Weather Stations Pressure Air Temp Water Temp Dewpoint Dewpoint Depression Visibility Wind Speed Wind Dir Waves Ship Positions

Thassos I

Last reported at 2017-Sep-25 13:31 UTC. Time now 2017-Sep-25 13:40 UTC.
Position N 40°47' E 024°42'.

Length 98 m; draft 2.4 m.

Type: Passenger vessel. MMSI: 239361400.

Date/timePositionNaut miles runAvg speedWind from/ knotsBaromVisibWave heightAir tempDewpointWater temp
2017-Sep-25 13:31N 40°47' E 024°42'0 0.0
2017-Sep-25 13:01N 40°47' E 024°42'0 0.0
2017-Sep-25 12:30N 40°47' E 024°42'2 3.5
2017-Sep-25 12:01N 40°48' E 024°41'3 6.6
2017-Sep-25 11:31N 40°51' E 024°42'0 0.0
2017-Sep-25 11:00N 40°51' E 024°42'3 5.5
2017-Sep-25 10:31N 40°49' E 024°42'2 3.9
2017-Sep-25 10:01N 40°47' E 024°42'0 0.0
2017-Sep-24 09:24N 40°47' E 024°42'3 8.8
2017-Sep-24 09:00N 40°50' E 024°41'2 3.2
2017-Sep-24 08:30N 40°51' E 024°42'1 1.4
2017-Sep-24 08:00N 40°52' E 024°41'5 9.8
2017-Sep-24 07:30N 40°47' E 024°42'1 1.1
2017-Sep-24 07:00N 40°47' E 024°42'4 8.3
2017-Sep-24 06:30N 40°51' E 024°42'0 0.1
2017-Sep-24 06:00N 40°51' E 024°42'2 4.6
2017-Sep-24 05:30N 40°49' E 024°42'2 4.8
2017-Sep-24 05:00N 40°47' E 024°42'0 0.0
2017-Sep-24 04:30N 40°47' E 024°42'4 7.3
2017-Sep-24 04:00N 40°50' E 024°41'1 3.0
2017-Sep-24 03:30N 40°51' E 024°42'1 1.8
2017-Sep-24 03:00N 40°52' E 024°41'5 9.7
2017-Sep-24 02:30N 40°47' E 024°42'0 0.1
2017-Sep-24 02:00N 40°47' E 024°42'  
2017-Sep-21 08:41N 40°47' E 024°42'1 6.7
2017-Sep-21 08:30N 40°48' E 024°41'4 7.2
2017-Sep-21 08:00N 40°51' E 024°42'0 0.0
2017-Sep-21 07:30N 40°51' E 024°42'2 4.6
2017-Sep-21 07:00N 40°49' E 024°42'2 4.8
2017-Sep-21 06:30N 40°47' E 024°42'4 7.7
2017-Sep-21 06:00N 40°50' E 024°40'2 3.5
2017-Sep-21 05:30N 40°51' E 024°42'1 2.3
2017-Sep-21 05:00N 40°51' E 024°41'5 9.1
2017-Sep-21 04:30N 40°47' E 024°42'0 0.0
2017-Sep-21 04:00N 40°47' E 024°42'2 4.1
2017-Sep-21 03:30N 40°49' E 024°41'3 5.7
2017-Sep-21 03:00N 40°51' E 024°42'0 0.1
2017-Sep-21 02:30N 40°51' E 024°42'0 0.0
2017-Sep-20 14:57N 40°51' E 024°42'5 4.9
2017-Sep-20 14:00N 40°47' E 024°42'0 0.0
2017-Sep-20 13:30N 40°47' E 024°42'0 0.0
2017-Sep-20 13:00N 40°47' E 024°42'4 7.2
2017-Sep-20 12:30N 40°50' E 024°41'1 2.8
2017-Sep-20 12:00N 40°51' E 024°42'1 1.6
2017-Sep-20 11:28N 40°52' E 024°41'510.4
2017-Sep-20 11:00N 40°47' E 024°42'0 0.0
2017-Sep-20 10:30N 40°47' E 024°42'3 6.9
2017-Sep-20 10:00N 40°50' E 024°41'2 3.2
2017-Sep-20 09:30N 40°51' E 024°42'1 1.4
2017-Sep-20 09:00N 40°52' E 024°41'5 9.7
2017-Sep-20 08:30N 40°47' E 024°42'0 0.6
2017-Sep-20 08:00N 40°47' E 024°42'0 0.4
2017-Sep-20 07:30N 40°47' E 024°43'0 0.0
2017-Sep-19 06:34N 40°47' E 024°43'0 3.0
2017-Sep-19 06:30N 40°47' E 024°42'3 6.4
2017-Sep-19 06:00N 40°50' E 024°41'2 3.2
2017-Sep-19 05:30N 40°51' E 024°42'1 1.5
2017-Sep-19 05:00N 40°52' E 024°41'5 9.7
2017-Sep-19 04:30N 40°47' E 024°42'0 0.0
2017-Sep-19 04:00N 40°47' E 024°42'1 2.4
2017-Sep-19 03:30N 40°48' E 024°42'3 6.9
2017-Sep-19 03:00N 40°51' E 024°42'0 0.0
2017-Sep-19 02:30N 40°51' E 024°42'0 0.0
2017-Sep-18 16:07N 40°51' E 024°42'1 5.3
2017-Sep-18 16:00N 40°52' E 024°41'5 9.8
2017-Sep-18 15:30N 40°47' E 024°42'1 1.3
2017-Sep-18 15:00N 40°47' E 024°42'4 8.1
2017-Sep-18 14:30N 40°51' E 024°42'0 0.1
2017-Sep-18 14:00N 40°51' E 024°42'2 4.4
2017-Sep-18 13:30N 40°49' E 024°42'3 5.1
2017-Sep-18 13:00N 40°47' E 024°42'0 0.0
2017-Sep-18 12:30N 40°47' E 024°42'1 1.4
2017-Sep-18 12:00N 40°47' E 024°42'4 8.0
2017-Sep-18 11:30N 40°51' E 024°42'0 0.1
2017-Sep-18 11:00N 40°51' E 024°42'2 4.4
2017-Sep-18 10:30N 40°49' E 024°42'3 5.0
2017-Sep-18 10:00N 40°47' E 024°42'0 0.0
2017-Sep-18 09:30N 40°47' E 024°42'0 0.0
2017-Sep-18 09:00N 40°47' E 024°42'0 0.0
2017-Sep-17 19:10N 40°47' E 024°42'1 7.0
2017-Sep-17 19:00N 40°48' E 024°42'4 7.2
2017-Sep-17 18:30N 40°51' E 024°42'0 0.0
2017-Sep-17 18:00N 40°51' E 024°42'0 0.0
2017-Sep-17 17:30N 40°51' E 024°42'2 4.4
2017-Sep-17 17:00N 40°49' E 024°42'3 5.0
2017-Sep-17 16:30N 40°47' E 024°42'3 6.7
2017-Sep-17 16:00N 40°50' E 024°41'2 3.2
2017-Sep-17 15:30N 40°51' E 024°42'1 1.1
2017-Sep-17 15:00N 40°52' E 024°41'5 9.6
2017-Sep-17 14:30N 40°47' E 024°42'0 0.0
2017-Sep-17 14:00N 40°47' E 024°42'1 1.4
2017-Sep-17 13:30N 40°47' E 024°42'4 7.9
2017-Sep-17 13:00N 40°51' E 024°42'0 0.0
2017-Sep-17 12:30N 40°51' E 024°42'2 4.3
2017-Sep-17 12:00N 40°49' E 024°42'3 5.2
2017-Sep-17 11:30N 40°47' E 024°42'1 1.4
2017-Sep-17 11:00N 40°47' E 024°42'4 8.0
2017-Sep-17 10:30N 40°51' E 024°42'0 0.1
2017-Sep-17 10:00N 40°51' E 024°42'2 4.3
2017-Sep-17 09:30N 40°49' E 024°42'3 5.1
2017-Sep-17 09:00N 40°47' E 024°42'1 1.5
2017-Sep-17 08:30N 40°48' E 024°42'4 7.9
2017-Sep-17 08:00N 40°51' E 024°42'0 0.0
2017-Sep-17 07:30N 40°51' E 024°42'2 4.5
2017-Sep-17 07:00N 40°49' E 024°42'2 5.0
2017-Sep-17 06:30N 40°47' E 024°42'0 0.0
2017-Sep-17 06:00N 40°47' E 024°42'0 0.0
2017-Sep-16 12:45N 40°47' E 024°42'1 5.1
2017-Sep-16 12:31N 40°48' E 024°41'4 7.3
2017-Sep-16 12:01N 40°51' E 024°42'0 0.1
2017-Sep-16 11:31N 40°51' E 024°42'2 4.6
2017-Sep-16 11:01N 40°49' E 024°41'2 4.9
2017-Sep-16 10:31N 40°47' E 024°42'1 2.5
2017-Sep-16 10:01N 40°48' E 024°42'4 7.1
2017-Sep-16 09:31N 40°51' E 024°42'0 0.1
2017-Sep-16 09:01N 40°51' E 024°42'2 4.4
2017-Sep-16 08:31N 40°49' E 024°41'3 5.1
2017-Sep-16 08:01N 40°47' E 024°42'1 1.9
2017-Sep-16 07:31N 40°48' E 024°42'4 7.4
2017-Sep-16 07:00N 40°51' E 024°42'0 0.0
2017-Sep-16 06:30N 40°51' E 024°42'2 4.4
2017-Sep-16 06:00N 40°49' E 024°41'3 5.3
2017-Sep-16 05:31N 40°47' E 024°42'1 1.6
2017-Sep-16 05:01N 40°48' E 024°42'4 7.9
2017-Sep-16 04:31N 40°51' E 024°42'0 0.0
2017-Sep-16 04:01N 40°51' E 024°42'2 4.3
2017-Sep-16 03:31N 40°49' E 024°42'2 4.9
2017-Sep-16 03:00N 40°47' E 024°42'0 0.5
2017-Sep-16 02:31N 40°47' E 024°43'  
Track history (hours):
 
Tides and Currents Weather Stations Pressure Air Temp Water Temp Dewpoint Dewpoint Depression Visibility Wind Speed Wind Dir Waves Ship Positions

Thassos I

Last reported at 2017-Sep-25 13:31 UTC. Time now 2017-Sep-25 13:40 UTC.
Position N 40°47' E 024°42'.

Length 98 m; draft 2.4 m.

Type: Passenger vessel. MMSI: 239361400.

Date/timePositionNaut miles runAvg speedWind from/ knotsBaromVisibWave heightAir tempDewpointWater temp
2017-Sep-25 13:31N 40°47' E 024°42'0 0.0
2017-Sep-25 13:01N 40°47' E 024°42'0 0.0
2017-Sep-25 12:30N 40°47' E 024°42'2 3.5
2017-Sep-25 12:01N 40°48' E 024°41'3 6.6
2017-Sep-25 11:31N 40°51' E 024°42'0 0.0
2017-Sep-25 11:00N 40°51' E 024°42'3 5.5
2017-Sep-25 10:31N 40°49' E 024°42'2 3.9
2017-Sep-25 10:01N 40°47' E 024°42'0 0.0
2017-Sep-24 09:24N 40°47' E 024°42'3 8.8
2017-Sep-24 09:00N 40°50' E 024°41'2 3.2
2017-Sep-24 08:30N 40°51' E 024°42'1 1.4
2017-Sep-24 08:00N 40°52' E 024°41'5 9.8
2017-Sep-24 07:30N 40°47' E 024°42'1 1.1
2017-Sep-24 07:00N 40°47' E 024°42'4 8.3
2017-Sep-24 06:30N 40°51' E 024°42'0 0.1
2017-Sep-24 06:00N 40°51' E 024°42'2 4.6
2017-Sep-24 05:30N 40°49' E 024°42'2 4.8
2017-Sep-24 05:00N 40°47' E 024°42'0 0.0
2017-Sep-24 04:30N 40°47' E 024°42'4 7.3
2017-Sep-24 04:00N 40°50' E 024°41'1 3.0
2017-Sep-24 03:30N 40°51' E 024°42'1 1.8
2017-Sep-24 03:00N 40°52' E 024°41'5 9.7
2017-Sep-24 02:30N 40°47' E 024°42'0 0.1
2017-Sep-24 02:00N 40°47' E 024°42'  
2017-Sep-21 08:41N 40°47' E 024°42'1 6.7
2017-Sep-21 08:30N 40°48' E 024°41'4 7.2
2017-Sep-21 08:00N 40°51' E 024°42'0 0.0
2017-Sep-21 07:30N 40°51' E 024°42'2 4.6
2017-Sep-21 07:00N 40°49' E 024°42'2 4.8
2017-Sep-21 06:30N 40°47' E 024°42'4 7.7
2017-Sep-21 06:00N 40°50' E 024°40'2 3.5
2017-Sep-21 05:30N 40°51' E 024°42'1 2.3
2017-Sep-21 05:00N 40°51' E 024°41'5 9.1
2017-Sep-21 04:30N 40°47' E 024°42'0 0.0
2017-Sep-21 04:00N 40°47' E 024°42'2 4.1
2017-Sep-21 03:30N 40°49' E 024°41'3 5.7
2017-Sep-21 03:00N 40°51' E 024°42'0 0.1
2017-Sep-21 02:30N 40°51' E 024°42'0 0.0
2017-Sep-20 14:57N 40°51' E 024°42'5 4.9
2017-Sep-20 14:00N 40°47' E 024°42'0 0.0
2017-Sep-20 13:30N 40°47' E 024°42'0 0.0
2017-Sep-20 13:00N 40°47' E 024°42'4 7.2
2017-Sep-20 12:30N 40°50' E 024°41'1 2.8
2017-Sep-20 12:00N 40°51' E 024°42'1 1.6
2017-Sep-20 11:28N 40°52' E 024°41'510.4
2017-Sep-20 11:00N 40°47' E 024°42'0 0.0
2017-Sep-20 10:30N 40°47' E 024°42'3 6.9
2017-Sep-20 10:00N 40°50' E 024°41'2 3.2
2017-Sep-20 09:30N 40°51' E 024°42'1 1.4
2017-Sep-20 09:00N 40°52' E 024°41'5 9.7
2017-Sep-20 08:30N 40°47' E 024°42'0 0.6
2017-Sep-20 08:00N 40°47' E 024°42'0 0.4
2017-Sep-20 07:30N 40°47' E 024°43'0 0.0
2017-Sep-19 06:34N 40°47' E 024°43'0 3.0
2017-Sep-19 06:30N 40°47' E 024°42'3 6.4
2017-Sep-19 06:00N 40°50' E 024°41'2 3.2
2017-Sep-19 05:30N 40°51' E 024°42'1 1.5
2017-Sep-19 05:00N 40°52' E 024°41'5 9.7
2017-Sep-19 04:30N 40°47' E 024°42'0 0.0
2017-Sep-19 04:00N 40°47' E 024°42'1 2.4
2017-Sep-19 03:30N 40°48' E 024°42'3 6.9
2017-Sep-19 03:00N 40°51' E 024°42'0 0.0
2017-Sep-19 02:30N 40°51' E 024°42'0 0.0
2017-Sep-18 16:07N 40°51' E 024°42'1 5.3
2017-Sep-18 16:00N 40°52' E 024°41'5 9.8
2017-Sep-18 15:30N 40°47' E 024°42'1 1.3
2017-Sep-18 15:00N 40°47' E 024°42'4 8.1
2017-Sep-18 14:30N 40°51' E 024°42'0 0.1
2017-Sep-18 14:00N 40°51' E 024°42'2 4.4
2017-Sep-18 13:30N 40°49' E 024°42'3 5.1
2017-Sep-18 13:00N 40°47' E 024°42'0 0.0
2017-Sep-18 12:30N 40°47' E 024°42'1 1.4
2017-Sep-18 12:00N 40°47' E 024°42'4 8.0
2017-Sep-18 11:30N 40°51' E 024°42'0 0.1
2017-Sep-18 11:00N 40°51' E 024°42'2 4.4
2017-Sep-18 10:30N 40°49' E 024°42'3 5.0
2017-Sep-18 10:00N 40°47' E 024°42'0 0.0
2017-Sep-18 09:30N 40°47' E 024°42'0 0.0
2017-Sep-18 09:00N 40°47' E 024°42'0 0.0
2017-Sep-17 19:10N 40°47' E 024°42'1 7.0
2017-Sep-17 19:00N 40°48' E 024°42'4 7.2
2017-Sep-17 18:30N 40°51' E 024°42'0 0.0
2017-Sep-17 18:00N 40°51' E 024°42'0 0.0
2017-Sep-17 17:30N 40°51' E 024°42'2 4.4
2017-Sep-17 17:00N 40°49' E 024°42'3 5.0
2017-Sep-17 16:30N 40°47' E 024°42'3 6.7
2017-Sep-17 16:00N 40°50' E 024°41'2 3.2
2017-Sep-17 15:30N 40°51' E 024°42'1 1.1
2017-Sep-17 15:00N 40°52' E 024°41'5 9.6
2017-Sep-17 14:30N 40°47' E 024°42'0 0.0
2017-Sep-17 14:00N 40°47' E 024°42'1 1.4
2017-Sep-17 13:30N 40°47' E 024°42'4 7.9
2017-Sep-17 13:00N 40°51' E 024°42'0 0.0
2017-Sep-17 12:30N 40°51' E 024°42'2 4.3
2017-Sep-17 12:00N 40°49' E 024°42'3 5.2
2017-Sep-17 11:30N 40°47' E 024°42'1 1.4
2017-Sep-17 11:00N 40°47' E 024°42'4 8.0
2017-Sep-17 10:30N 40°51' E 024°42'0 0.1
2017-Sep-17 10:00N 40°51' E 024°42'2 4.3
2017-Sep-17 09:30N 40°49' E 024°42'3 5.1
2017-Sep-17 09:00N 40°47' E 024°42'1 1.5
2017-Sep-17 08:30N 40°48' E 024°42'4 7.9
2017-Sep-17 08:00N 40°51' E 024°42'0 0.0
2017-Sep-17 07:30N 40°51' E 024°42'2 4.5
2017-Sep-17 07:00N 40°49' E 024°42'2 5.0
2017-Sep-17 06:30N 40°47' E 024°42'0 0.0
2017-Sep-17 06:00N 40°47' E 024°42'0 0.0
2017-Sep-16 12:45N 40°47' E 024°42'1 5.1
2017-Sep-16 12:31N 40°48' E 024°41'4 7.3
2017-Sep-16 12:01N 40°51' E 024°42'0 0.1
2017-Sep-16 11:31N 40°51' E 024°42'2 4.6
2017-Sep-16 11:01N 40°49' E 024°41'2 4.9
2017-Sep-16 10:31N 40°47' E 024°42'1 2.5
2017-Sep-16 10:01N 40°48' E 024°42'4 7.1
2017-Sep-16 09:31N 40°51' E 024°42'0 0.1
2017-Sep-16 09:01N 40°51' E 024°42'2 4.4
2017-Sep-16 08:31N 40°49' E 024°41'3 5.1
2017-Sep-16 08:01N 40°47' E 024°42'1 1.9
2017-Sep-16 07:31N 40°48' E 024°42'4 7.4
2017-Sep-16 07:00N 40°51' E 024°42'0 0.0
2017-Sep-16 06:30N 40°51' E 024°42'2 4.4
2017-Sep-16 06:00N 40°49' E 024°41'3 5.3
2017-Sep-16 05:31N 40°47' E 024°42'1 1.6
2017-Sep-16 05:01N 40°48' E 024°42'4 7.9
2017-Sep-16 04:31N 40°51' E 024°42'0 0.0
2017-Sep-16 04:01N 40°51' E 024°42'2 4.3
2017-Sep-16 03:31N 40°49' E 024°42'2 4.9
2017-Sep-16 03:00N 40°47' E 024°42'0 0.5
2017-Sep-16 02:31N 40°47' E 024°43'  

Dump ship's entire track history